Time;durP1;ratioP1;P1;durP2;ratioP2;P2;SDS_P1;SDS_P2;PMS_P1;PMS_P2;Temp;Humidity;BMP_temperature;BMP_pressure;BME280_temperature;BME280_humidity;BME280_pressure;Samples;Min_cycle;Max_cycle;Signal;HPM_P1;HPM_P2
2023/10/31 00:00:54;;;;;;;;;;;;;;;;;;4999111;28;20016;-81
2023/10/31 00:03:19;;;;;;;;;;;;;;;;;;5002918;28;20024;-81
2023/10/31 00:05:45;;;;;;;;;;;;;;;;;;4998826;28;19967;-82
2023/10/31 00:08:11;;;;;;;;;;;;;;;;;;5007527;28;20317;-81
2023/10/31 00:10:37;;;;;;;;;;;;;;;;;;5010679;28;19974;-81
2023/10/31 00:13:03;;;;;;;;;;;;;;;;;;4994894;28;19925;-81
2023/10/31 00:15:30;;;;;;;;;;;;;;;;;;5012062;28;20344;-81
2023/10/31 00:17:56;;;;;;;;;;;;;;;;;;5015433;28;19925;-80
2023/10/31 00:20:22;;;;;;;;;;;;;;;;;;5008357;28;20543;-81
2023/10/31 00:22:48;;;;;;;;;;;;;;;;;;5011751;28;19979;-82
2023/10/31 00:25:14;;;;;;;;;;;;;;;;;;5008258;28;19929;-81
2023/10/31 00:27:40;;;;;;;;;;;;;;;;;;5015541;28;19955;-81
2023/10/31 00:30:06;;;;;;;;;;;;;;;;;;5015317;28;19994;-81
2023/10/31 00:32:32;;;;;;;;;;;;;;;;;;5011811;28;19928;-81
2023/10/31 00:34:57;;;;;;;;;;;;;;;;;;5031444;28;19925;-81
2023/10/31 00:37:23;;;;;;;;;;;;;;;;;;5007882;28;19929;-81
2023/10/31 00:39:49;;;;;;;;;;;;;;;;;;5009226;28;19925;-81
2023/10/31 00:42:15;;;;;;;;;;;;;;;;;;5017003;28;19929;-82
2023/10/31 00:44:41;;;;;;;;;;;;;;;;;;5013464;28;19964;-81
2023/10/31 00:47:07;;;;;;;;;;;;;;;;;;4996414;28;20476;-82
2023/10/31 00:49:33;;;;;;;;;;;;;;;;;;4995300;28;19932;-82
2023/10/31 00:51:59;;;;;;;;;;;;;;;;;;4996486;28;19929;-82
2023/10/31 00:54:25;;;;;;;;;;;;;;;;;;5004503;28;19926;-82
2023/10/31 00:56:51;;;;;;;;;;;;;;;;;;5002077;28;19979;-82
2023/10/31 00:59:16;;;;;;;;;;;;;;;;;;4989182;28;19940;-81
2023/10/31 01:01:43;;;;;;;;;;;;;;;;;;4982172;28;19933;-82
2023/10/31 01:04:09;;;;;;;;;;;;;;;;;;4990032;28;19929;-82
2023/10/31 01:06:35;;;;;;;;;;;;;;;;;;4996651;28;19936;-83
2023/10/31 01:09:01;;;;;;;;;;;;;;;;;;4999002;28;20380;-83
2023/10/31 01:11:27;;;;;;;;;;;;;;;;;;5011303;28;19929;-83
2023/10/31 01:13:53;;;;;;;;;;;;;;;;;;5011276;28;20307;-84
2023/10/31 01:16:19;;;;;;;;;;;;;;;;;;5014115;28;19971;-84
2023/10/31 01:18:45;;;;;;;;;;;;;;;;;;4998054;28;19928;-82
2023/10/31 01:21:11;;;;;;;;;;;;;;;;;;5033695;28;20071;-82
2023/10/31 01:23:36;;;;;;;;;;;;;;;;;;5014416;28;19931;-82
2023/10/31 01:26:02;;;;;;;;;;;;;;;;;;5015690;28;19944;-82
2023/10/31 01:28:28;;;;;;;;;;;;;;;;;;5016964;28;19928;-82
2023/10/31 01:30:54;;;;;;;;;;;;;;;;;;5012531;28;19929;-82
2023/10/31 01:33:20;;;;;;;;;;;;;;;;;;5020007;28;19975;-82
2023/10/31 01:35:46;;;;;;;;;;;;;;;;;;5015477;28;20388;-83
2023/10/31 01:38:12;;;;;;;;;;;;;;;;;;5000982;28;19929;-82
2023/10/31 01:40:38;;;;;;;;;;;;;;;;;;5014969;28;19936;-83
2023/10/31 01:43:04;;;;;;;;;;;;;;;;;;5016104;28;20480;-82
2023/10/31 01:45:30;;;;;;;;;;;;;;;;;;4999763;28;19929;-83
2023/10/31 01:47:56;;;;;;;;;;;;;;;;;;5013727;28;20471;-82
2023/10/31 01:50:21;;;;;;;;;;;;;;;;;;5016639;28;20598;-83
2023/10/31 01:52:47;;;;;;;;;;;;;;;;;;4997424;28;19933;-84
2023/10/31 01:55:13;;;;;;;;;;;;;;;;;;4999999;28;19936;-83
2023/10/31 01:57:39;;;;;;;;;;;;;;;;;;4987777;28;19929;-83
2023/10/31 02:00:05;;;;;;;;;;;;;;;;;;4992853;28;20029;-83
2023/10/31 02:02:31;;;;;;;;;;;;;;;;;;4977175;28;19991;-84
2023/10/31 02:04:57;;;;;;;;;;;;;;;;;;5009389;28;19982;-82
2023/10/31 02:07:23;;;;;;;;;;;;;;;;;;5017060;28;19931;-83
2023/10/31 02:09:49;;;;;;;;;;;;;;;;;;5010889;28;19925;-83
2023/10/31 02:12:15;;;;;;;;;;;;;;;;;;5014477;28;20023;-83
2023/10/31 02:14:41;;;;;;;;;;;;;;;;;;5014202;28;20913;-83
2023/10/31 02:17:06;;;;;;;;;;;;;;;;;;5006529;28;19937;-83
2023/10/31 02:19:32;;;;;;;;;;;;;;;;;;4996789;28;19929;-83
2023/10/31 02:21:59;;;;;;;;;;;;;;;;;;5014019;28;19935;-84
2023/10/31 02:24:25;;;;;;;;;;;;;;;;;;5016515;28;20385;-82
2023/10/31 02:26:51;;;;;;;;;;;;;;;;;;5016374;28;19952;-83
2023/10/31 02:29:17;;;;;;;;;;;;;;;;;;5001075;28;19936;-84
2023/10/31 02:31:43;;;;;;;;;;;;;;;;;;4995297;28;19955;-83
2023/10/31 02:34:09;;;;;;;;;;;;;;;;;;5013382;28;20026;-84
2023/10/31 02:36:35;;;;;;;;;;;;;;;;;;5015992;28;20392;-83
2023/10/31 02:39:00;;;;;;;;;;;;;;;;;;4996751;28;19972;-84
2023/10/31 02:41:26;;;;;;;;;;;;;;;;;;5000023;28;20299;-83
2023/10/31 02:43:54;;;;;;;;;;;;;;;;;;4993671;28;19929;-83
2023/10/31 02:46:20;;;;;;;;;;;;;;;;;;4987962;28;19980;-85
2023/10/31 02:48:46;;;;;;;;;;;;;;;;;;4995641;28;19972;-82
2023/10/31 02:51:12;;;;;;;;;;;;;;;;;;5017612;28;19939;-84
2023/10/31 02:53:38;;;;;;;;;;;;;;;;;;5011956;28;19933;-84
2023/10/31 02:56:04;;;;;;;;;;;;;;;;;;5015733;28;20351;-83
2023/10/31 02:58:30;;;;;;;;;;;;;;;;;;4994156;28;19929;-83
2023/10/31 03:00:56;;;;;;;;;;;;;;;;;;5000303;28;19939;-83
2023/10/31 03:03:22;;;;;;;;;;;;;;;;;;5016332;28;19925;-83
2023/10/31 03:05:47;;;;;;;;;;;;;;;;;;5017349;28;19934;-82
2023/10/31 03:08:14;;;;;;;;;;;;;;;;;;4997897;28;19935;-83
2023/10/31 03:10:40;;;;;;;;;;;;;;;;;;5003094;28;20296;-83
2023/10/31 03:13:05;;;;;;;;;;;;;;;;;;5012045;28;19929;-84
2023/10/31 03:15:31;;;;;;;;;;;;;;;;;;5011949;28;20295;-82
2023/10/31 03:17:57;;;;;;;;;;;;;;;;;;5011374;28;19925;-83
2023/10/31 03:20:23;;;;;;;;;;;;;;;;;;5008688;28;20255;-83
2023/10/31 03:22:50;;;;;;;;;;;;;;;;;;5012828;28;19929;-84
2023/10/31 03:25:15;;;;;;;;;;;;;;;;;;4993609;28;20292;-83
2023/10/31 03:27:41;;;;;;;;;;;;;;;;;;4993648;28;19936;-82
2023/10/31 03:30:07;;;;;;;;;;;;;;;;;;4995251;28;19929;-84
2023/10/31 03:32:33;;;;;;;;;;;;;;;;;;4995262;28;20313;-83
2023/10/31 03:34:59;;;;;;;;;;;;;;;;;;4998343;28;19967;-84
2023/10/31 03:37:25;;;;;;;;;;;;;;;;;;5014632;28;20386;-83
2023/10/31 03:39:51;;;;;;;;;;;;;;;;;;5015399;28;19934;-83
2023/10/31 03:42:17;;;;;;;;;;;;;;;;;;5017081;28;19925;-82
2023/10/31 03:44:43;;;;;;;;;;;;;;;;;;5011348;28;20484;-83
2023/10/31 03:47:09;;;;;;;;;;;;;;;;;;5005504;28;19925;-83
2023/10/31 03:49:34;;;;;;;;;;;;;;;;;;5013792;28;20127;-83
2023/10/31 03:52:00;;;;;;;;;;;;;;;;;;5013435;28;20292;-83
2023/10/31 03:54:26;;;;;;;;;;;;;;;;;;5007496;28;19929;-83
2023/10/31 03:56:52;;;;;;;;;;;;;;;;;;5016986;28;19975;-83
2023/10/31 03:59:18;;;;;;;;;;;;;;;;;;4998902;28;19932;-84
2023/10/31 04:01:44;;;;;;;;;;;;;;;;;;5010103;28;19929;-83
2023/10/31 04:04:10;;;;;;;;;;;;;;;;;;5001216;28;19936;-83
2023/10/31 04:06:39;;;;;;;;;;;;;;;;;;5002417;28;19929;-83
2023/10/31 04:09:05;;;;;;;;;;;;;;;;;;5009584;28;19929;-83
2023/10/31 04:11:31;;;;;;;;;;;;;;;;;;4991690;28;19991;-83
2023/10/31 04:13:57;;;;;;;;;;;;;;;;;;4997816;28;20404;-83
2023/10/31 04:16:23;;;;;;;;;;;;;;;;;;4982387;28;20074;-83
2023/10/31 04:18:49;;;;;;;;;;;;;;;;;;5002803;28;19979;-83
2023/10/31 04:21:15;;;;;;;;;;;;;;;;;;4993984;28;19929;-82
2023/10/31 04:23:41;;;;;;;;;;;;;;;;;;4996929;28;19979;-84
2023/10/31 04:26:07;;;;;;;;;;;;;;;;;;4981746;28;19925;-83
2023/10/31 04:28:33;;;;;;;;;;;;;;;;;;5003305;28;19929;-83
2023/10/31 04:30:58;;;;;;;;;;;;;;;;;;4974304;28;19926;-83
2023/10/31 04:33:24;;;;;;;;;;;;;;;;;;5004905;28;19936;-83
2023/10/31 04:35:50;;;;;;;;;;;;;;;;;;5004407;28;19929;-85
2023/10/31 04:38:16;;;;;;;;;;;;;;;;;;5002743;28;20505;-83
2023/10/31 04:40:42;;;;;;;;;;;;;;;;;;4997326;28;19933;-82
2023/10/31 04:43:08;;;;;;;;;;;;;;;;;;5000092;28;19951;-83
2023/10/31 04:45:34;;;;;;;;;;;;;;;;;;5011966;28;19933;-83
2023/10/31 04:48:00;;;;;;;;;;;;;;;;;;4996419;28;20368;-84
2023/10/31 04:50:26;;;;;;;;;;;;;;;;;;4990262;28;19925;-84
2023/10/31 04:52:52;;;;;;;;;;;;;;;;;;5013239;28;19925;-82
2023/10/31 04:55:18;;;;;;;;;;;;;;;;;;5002557;28;19936;-84
2023/10/31 04:57:44;;;;;;;;;;;;;;;;;;5029325;28;19932;-84
2023/10/31 05:00:10;;;;;;;;;;;;;;;;;;5038391;28;20350;-84
2023/10/31 05:02:36;;;;;;;;;;;;;;;;;;5013728;28;20864;-84
2023/10/31 05:05:02;;;;;;;;;;;;;;;;;;5007297;28;19925;-83
2023/10/31 05:07:27;;;;;;;;;;;;;;;;;;5017495;28;20039;-83
2023/10/31 05:09:53;;;;;;;;;;;;;;;;;;4999941;28;19929;-83
2023/10/31 05:12:19;;;;;;;;;;;;;;;;;;5015928;28;19945;-83
2023/10/31 05:14:45;;;;;;;;;;;;;;;;;;5012759;28;19925;-84
2023/10/31 05:17:11;;;;;;;;;;;;;;;;;;4999851;28;19937;-83
2023/10/31 05:19:37;;;;;;;;;;;;;;;;;;5001805;28;20018;-83
2023/10/31 05:22:03;;;;;;;;;;;;;;;;;;5000721;28;20320;-82
2023/10/31 05:24:29;;;;;;;;;;;;;;;;;;5018268;28;19930;-83
2023/10/31 05:26:56;;;;;;;;;;;;;;;;;;5018017;28;20465;-83
2023/10/31 05:29:22;;;;;;;;;;;;;;;;;;5017211;28;19925;-83
2023/10/31 05:31:48;;;;;;;;;;;;;;;;;;5013357;28;19936;-83
2023/10/31 05:34:20;;;;;;;;;;;;;;;;;;5012130;28;19936;-82
2023/10/31 05:36:46;;;;;;;;;;;;;;;;;;4996736;28;19928;-83
2023/10/31 05:39:12;;;;;;;;;;;;;;;;;;5004042;28;19936;-84
2023/10/31 05:41:38;;;;;;;;;;;;;;;;;;5032920;28;19990;-83
2023/10/31 05:44:04;;;;;;;;;;;;;;;;;;5034620;28;19936;-84
2023/10/31 05:46:30;;;;;;;;;;;;;;;;;;5012402;28;19935;-83
2023/10/31 05:48:56;;;;;;;;;;;;;;;;;;5017153;28;20309;-84
2023/10/31 05:51:22;;;;;;;;;;;;;;;;;;5000479;28;19928;-84
2023/10/31 05:53:47;;;;;;;;;;;;;;;;;;5009173;28;19936;-84
2023/10/31 05:56:13;;;;;;;;;;;;;;;;;;5012453;28;19925;-83
2023/10/31 05:58:39;;;;;;;;;;;;;;;;;;5011580;28;19929;-83
2023/10/31 06:01:06;;;;;;;;;;;;;;;;;;4992546;28;19925;-83
2023/10/31 06:03:31;;;;;;;;;;;;;;;;;;5012849;28;19969;-82
2023/10/31 06:05:57;;;;;;;;;;;;;;;;;;5016296;28;19936;-83
2023/10/31 06:08:24;;;;;;;;;;;;;;;;;;5016321;28;20026;-83
2023/10/31 06:10:50;;;;;;;;;;;;;;;;;;5005357;28;19925;-83
2023/10/31 06:13:16;;;;;;;;;;;;;;;;;;4999693;28;19992;-82
2023/10/31 06:15:42;;;;;;;;;;;;;;;;;;5015033;28;19979;-82
2023/10/31 06:18:08;;;;;;;;;;;;;;;;;;5002234;28;19928;-83
2023/10/31 06:20:34;;;;;;;;;;;;;;;;;;5034508;28;20000;-84
2023/10/31 06:23:01;;;;;;;;;;;;;;;;;;5033560;28;19933;-83
2023/10/31 06:25:26;;;;;;;;;;;;;;;;;;4997854;28;20032;-82
2023/10/31 06:27:52;;;;;;;;;;;;;;;;;;5036399;28;20474;-83
2023/10/31 06:30:18;;;;;;;;;;;;;;;;;;5009032;28;19929;-84
2023/10/31 06:32:44;;;;;;;;;;;;;;;;;;4999659;28;19939;-84
2023/10/31 06:35:10;;;;;;;;;;;;;;;;;;5029793;28;19933;-83
2023/10/31 06:37:39;;;;;;;;;;;;;;;;;;5013605;28;19925;-83
2023/10/31 06:40:05;;;;;;;;;;;;;;;;;;4997973;28;19925;-84
2023/10/31 06:42:31;;;;;;;;;;;;;;;;;;4999937;28;19932;-82
2023/10/31 06:44:57;;;;;;;;;;;;;;;;;;4993621;28;20357;-83
2023/10/31 06:47:23;;;;;;;;;;;;;;;;;;5012202;28;19971;-82
2023/10/31 06:49:49;;;;;;;;;;;;;;;;;;4995474;28;20506;-83
2023/10/31 06:52:15;;;;;;;;;;;;;;;;;;5015465;28;19929;-83
2023/10/31 06:54:41;;;;;;;;;;;;;;;;;;4998427;28;19960;-82
2023/10/31 06:57:07;;;;;;;;;;;;;;;;;;5019373;28;20386;-82
2023/10/31 06:59:33;;;;;;;;;;;;;;;;;;5011226;28;19984;-84
2023/10/31 07:01:59;;;;;;;;;;;;;;;;;;4991857;28;19960;-82
2023/10/31 07:04:25;;;;;;;;;;;;;;;;;;5008214;28;20032;-83
2023/10/31 07:06:56;;;;;;;;;;;;;;;;;;5012781;28;19929;-83
2023/10/31 07:09:25;;;;;;;;;;;;;;;;;;5016134;28;20301;-85
2023/10/31 07:11:52;;;;;;;;;;;;;;;;;;5002176;28;20404;-83
2023/10/31 07:14:17;;;;;;;;;;;;;;;;;;5028509;28;19972;-83
2023/10/31 07:16:44;;;;;;;;;;;;;;;;;;5033602;28;19935;-82
2023/10/31 07:19:10;;;;;;;;;;;;;;;;;;5030786;28;19940;-83
2023/10/31 07:21:36;;;;;;;;;;;;;;;;;;5022160;28;19929;-83
2023/10/31 07:24:02;;;;;;;;;;;;;;;;;;5033610;28;19929;-83
2023/10/31 07:26:28;;;;;;;;;;;;;;;;;;5030471;28;19935;-82
2023/10/31 07:28:57;;;;;;;;;;;;;;;;;;5030879;28;20047;-83
2023/10/31 07:31:23;;;;;;;;;;;;;;;;;;5007493;28;20400;-83
2023/10/31 07:33:49;;;;;;;;;;;;;;;;;;5008202;28;19925;-83
2023/10/31 07:36:15;;;;;;;;;;;;;;;;;;5006187;28;19936;-83
2023/10/31 07:38:41;;;;;;;;;;;;;;;;;;4989798;28;19925;-83
2023/10/31 07:41:06;;;;;;;;;;;;;;;;;;5004546;28;19937;-83
2023/10/31 07:43:32;;;;;;;;;;;;;;;;;;4981990;28;19980;-82
2023/10/31 07:45:58;;;;;;;;;;;;;;;;;;4990440;28;20282;-83
2023/10/31 07:48:24;;;;;;;;;;;;;;;;;;4990227;28;19940;-83
2023/10/31 07:50:50;;;;;;;;;;;;;;;;;;5004725;28;19925;-83
2023/10/31 07:53:17;;;;;;;;;;;;;;;;;;5002923;28;20939;-82
2023/10/31 07:55:43;;;;;;;;;;;;;;;;;;5002047;28;20067;-82
2023/10/31 07:58:12;;;;;;;;;;;;;;;;;;5004142;28;20016;-83
2023/10/31 08:00:39;;;;;;;;;;;;;;;;;;5024912;28;19943;-83
2023/10/31 08:03:04;;;;;;;;;;;;;;;;;;4997797;28;19929;-82
2023/10/31 08:05:30;;;;;;;;;;;;;;;;;;4998014;28;19925;-83
2023/10/31 08:08:02;;;;;;;;;;;;;;;;;;5013351;28;19929;-83
2023/10/31 08:13:35;;;;;;;;;;;;;;;;;;5040427;23;20415;-82
2023/10/31 08:16:01;;;;;;;;;;;;;;;;;;5030890;28;19940;-83
2023/10/31 08:18:27;;;;;;;;;;;;;;;;;;5033677;28;21566;-83
2023/10/31 08:20:53;;;;;;;;;;;;;;;;;;5033883;28;19955;-83
2023/10/31 08:23:19;;;;;;;;;;;;;;;;;;5037398;28;20931;-82
2023/10/31 08:25:45;;;;;;;;;;;;;;;;;;5026099;28;19936;-82
2023/10/31 08:28:11;;;;;;;;;;;;;;;;;;5035114;28;19933;-82
2023/10/31 08:30:55;;;;;;;;;;;;;;;;;;5036257;28;20411;-82
2023/10/31 08:33:21;;;;;;;;;;;;;;;;;;5034149;28;20055;-81
2023/10/31 08:35:47;;;;;;;;;;;;;;;;;;5037694;28;20027;-81
2023/10/31 08:38:13;;;;;;;;;;;;;;;;;;5038545;28;20432;-83
2023/10/31 08:40:40;;;;;;;;;;;;;;;;;;5036093;28;19964;-83
2023/10/31 08:43:06;;;;;;;;;;;;;;;;;;5034034;28;20016;-81
2023/10/31 08:45:33;;;;;;;;;;;;;;;;;;5029327;28;19929;-81
2023/10/31 08:47:59;;;;;;;;;;;;;;;;;;5032399;28;19933;-81
2023/10/31 08:50:24;;;;;;;;;;;;;;;;;;5036103;28;19987;-80
2023/10/31 08:52:50;;;;;;;;;;;;;;;;;;5034461;28;20497;-81
2023/10/31 08:55:16;;;;;;;;;;;;;;;;;;5035462;28;20031;-81
2023/10/31 08:57:42;;;;;;;;;;;;;;;;;;5033696;28;19935;-82
2023/10/31 09:00:08;;;;;;;;;;;;;;;;;;5035506;28;19964;-81
2023/10/31 09:02:34;;;;;;;;;;;;;;;;;;5030847;28;19928;-80
2023/10/31 09:05:00;;;;;;;;;;;;;;;;;;5038973;28;19925;-80
2023/10/31 09:07:26;;;;;;;;;;;;;;;;;;5026865;28;19928;-82
2023/10/31 09:09:52;;;;;;;;;;;;;;;;;;5030163;28;19929;-82
2023/10/31 09:12:18;;;;;;;;;;;;;;;;;;5022369;28;20854;-81
2023/10/31 09:14:45;;;;;;;;;;;;;;;;;;5025470;28;20003;-82
2023/10/31 09:17:10;;;;;;;;;;;;;;;;;;5023295;28;19945;-81
2023/10/31 09:19:36;;;;;;;;;;;;;;;;;;5026652;28;19952;-82
2023/10/31 09:22:02;;;;;;;;;;;;;;;;;;5024189;28;19935;-81
2023/10/31 09:24:28;;;;;;;;;;;;;;;;;;5023196;28;19929;-81
2023/10/31 09:26:55;;;;;;;;;;;;;;;;;;5022074;28;20122;-81
2023/10/31 09:29:20;;;;;;;;;;;;;;;;;;5028309;28;20447;-80
2023/10/31 09:31:47;;;;;;;;;;;;;;;;;;5025799;28;19929;-82
2023/10/31 09:34:13;;;;;;;;;;;;;;;;;;5021803;28;19975;-81
2023/10/31 09:36:39;;;;;;;;;;;;;;;;;;5032170;28;19933;-88
2023/10/31 09:39:05;;;;;;;;;;;;;;;;;;5026175;28;19943;-87
2023/10/31 09:41:34;;;;;;;;;;;;;;;;;;5035528;28;20338;-89
2023/10/31 09:44:00;;;;;;;;;;;;;;;;;;5030150;28;19929;-81
2023/10/31 09:46:26;;;;;;;;;;;;;;;;;;5027449;28;19979;-81
2023/10/31 09:48:52;;;;;;;;;;;;;;;;;;5043744;28;19983;-81
2023/10/31 09:51:18;;;;;;;;;;;;;;;;;;5044487;28;20313;-81
2023/10/31 09:53:44;;;;;;;;;;;;;;;;;;5036503;28;19925;-82
2023/10/31 09:56:10;;;;;;;;;;;;;;;;;;5035364;28;20963;-82
2023/10/31 09:58:36;;;;;;;;;;;;;;;;;;5036826;28;20266;-80
2023/10/31 10:01:02;;;;;;;;;;;;;;;;;;5032459;28;19936;-81
2023/10/31 10:03:28;;;;;;;;;;;;;;;;;;5043423;28;19931;-81
2023/10/31 10:05:54;;;;;;;;;;;;;;;;;;5043486;28;19929;-83
2023/10/31 10:08:20;;;;;;;;;;;;;;;;;;5044186;28;20420;-81
2023/10/31 10:10:46;;;;;;;;;;;;;;;;;;5032086;28;19929;-83
2023/10/31 10:13:12;;;;;;;;;;;;;;;;;;5022643;28;20283;-84
2023/10/31 10:15:38;;;;;;;;;;;;;;;;;;5035537;28;19948;-83
2023/10/31 10:18:04;;;;;;;;;;;;;;;;;;5045175;28;19971;-82
2023/10/31 10:20:30;;;;;;;;;;;;;;;;;;5032054;28;19929;-82
2023/10/31 10:22:56;;;;;;;;;;;;;;;;;;5034448;28;19929;-82
2023/10/31 10:25:22;;;;;;;;;;;;;;;;;;5033422;28;19955;-83
2023/10/31 10:27:48;;;;;;;;;;;;;;;;;;5041337;28;19986;-84
2023/10/31 10:30:14;;;;;;;;;;;;;;;;;;5036697;28;19925;-82
2023/10/31 10:32:40;;;;;;;;;;;;;;;;;;5042664;28;19951;-83
2023/10/31 10:35:06;;;;;;;;;;;;;;;;;;5037323;28;20004;-82
2023/10/31 10:37:32;;;;;;;;;;;;;;;;;;5045804;28;19936;-83
2023/10/31 10:39:59;;;;;;;;;;;;;;;;;;5038972;28;19936;-83
2023/10/31 10:42:25;;;;;;;;;;;;;;;;;;5034890;28;19928;-82
2023/10/31 10:44:51;;;;;;;;;;;;;;;;;;5033938;28;20258;-82
2023/10/31 10:47:17;;;;;;;;;;;;;;;;;;5029286;28;19936;-82
2023/10/31 10:49:43;;;;;;;;;;;;;;;;;;5031731;28;19933;-82
2023/10/31 10:52:09;;;;;;;;;;;;;;;;;;5017217;28;19975;-82
2023/10/31 10:54:35;;;;;;;;;;;;;;;;;;5026855;28;19928;-83
2023/10/31 10:57:01;;;;;;;;;;;;;;;;;;5025192;28;20687;-82
2023/10/31 10:59:27;;;;;;;;;;;;;;;;;;5038287;28;20032;-83
2023/10/31 11:01:53;;;;;;;;;;;;;;;;;;5013023;28;20361;-83
2023/10/31 11:04:19;;;;;;;;;;;;;;;;;;5037657;28;19929;-82
2023/10/31 11:06:46;;;;;;;;;;;;;;;;;;5025622;28;19936;-81
2023/10/31 11:09:20;;;;;;;;;;;;;;;;;;5018078;28;19935;-82
2023/10/31 11:11:48;;;;;;;;;;;;;;;;;;5029876;28;19983;-81
2023/10/31 11:14:14;;;;;;;;;;;;;;;;;;5015256;28;20347;-82
2023/10/31 11:16:41;;;;;;;;;;;;;;;;;;5040804;28;20024;-82
2023/10/31 11:19:07;;;;;;;;;;;;;;;;;;5044158;28;19929;-81
2023/10/31 11:21:32;;;;;;;;;;;;;;;;;;5041527;28;19933;-81
2023/10/31 11:23:59;;;;;;;;;;;;;;;;;;5040063;28;20354;-81
2023/10/31 11:26:27;;;;;;;;;;;;;;;;;;5025771;28;20396;-81
2023/10/31 11:28:53;;;;;;;;;;;;;;;;;;5030607;28;20438;-82
2023/10/31 11:31:19;;;;;;;;;;;;;;;;;;5034305;28;19932;-82
2023/10/31 11:33:46;;;;;;;;;;;;;;;;;;5032382;28;19936;-81
2023/10/31 11:36:12;;;;;;;;;;;;;;;;;;5025826;28;19933;-81
2023/10/31 11:38:38;;;;;;;;;;;;;;;;;;5036328;28;19928;-81
2023/10/31 11:41:04;;;;;;;;;;;;;;;;;;5039289;28;19924;-81
2023/10/31 11:43:30;;;;;;;;;;;;;;;;;;5036816;28;19924;-80
2023/10/31 11:45:57;;;;;;;;;;;;;;;;;;5033353;28;19940;-82
2023/10/31 11:48:23;;;;;;;;;;;;;;;;;;5028539;28;20102;-81
2023/10/31 11:50:49;;;;;;;;;;;;;;;;;;5029748;28;20392;-82
2023/10/31 11:53:16;;;;;;;;;;;;;;;;;;5042226;28;19978;-82
2023/10/31 11:55:46;;;;;;;;;;;;;;;;;;5034353;28;19936;-81
2023/10/31 11:58:12;;;;;;;;;;;;;;;;;;5032005;28;19936;-80
2023/10/31 12:00:38;;;;;;;;;;;;;;;;;;5030026;28;19929;-81
2023/10/31 12:03:04;;;;;;;;;;;;;;;;;;5029165;28;19932;-82
2023/10/31 12:05:30;;;;;;;;;;;;;;;;;;5035831;28;19936;-82
2023/10/31 12:07:56;;;;;;;;;;;;;;;;;;5027720;28;20071;-81
2023/10/31 12:10:23;;;;;;;;;;;;;;;;;;5032965;28;20406;-81
2023/10/31 12:12:49;;;;;;;;;;;;;;;;;;5030514;28;19929;-81
2023/10/31 12:15:15;;;;;;;;;;;;;;;;;;5037095;28;20277;-81
2023/10/31 12:17:41;;;;;;;;;;;;;;;;;;5030929;28;19929;-80
2023/10/31 12:20:07;;;;;;;;;;;;;;;;;;5031642;28;19944;-80
2023/10/31 12:22:33;;;;;;;;;;;;;;;;;;5028039;28;19932;-80
2023/10/31 12:24:59;;;;;;;;;;;;;;;;;;5035889;28;20455;-81
2023/10/31 12:27:25;;;;;;;;;;;;;;;;;;5034154;28;20085;-81
2023/10/31 12:29:50;;;;;;;;;;;;;;;;;;5039389;28;20003;-81
2023/10/31 12:32:16;;;;;;;;;;;;;;;;;;5031365;28;19929;-81
2023/10/31 12:34:42;;;;;;;;;;;;;;;;;;5034437;28;19975;-81
2023/10/31 12:37:08;;;;;;;;;;;;;;;;;;5038459;28;20012;-80
2023/10/31 12:39:34;;;;;;;;;;;;;;;;;;5037212;28;19971;-81
2023/10/31 12:42:01;;;;;;;;;;;;;;;;;;5031601;28;19960;-81
2023/10/31 12:44:27;;;;;;;;;;;;;;;;;;5040364;28;20020;-82
2023/10/31 12:46:53;;;;;;;;;;;;;;;;;;5036760;28;20368;-82
2023/10/31 12:49:19;;;;;;;;;;;;;;;;;;5020487;28;19936;-81
2023/10/31 12:51:45;;;;;;;;;;;;;;;;;;5030629;28;20039;-80
2023/10/31 12:54:11;;;;;;;;;;;;;;;;;;5030883;28;20006;-80
2023/10/31 12:56:39;;;;;;;;;;;;;;;;;;5024146;28;19994;-81
2023/10/31 12:59:05;;;;;;;;;;;;;;;;;;5034738;28;19964;-80
2023/10/31 13:01:31;;;;;;;;;;;;;;;;;;5026633;28;19929;-81
2023/10/31 13:03:57;;;;;;;;;;;;;;;;;;5036601;28;19950;-81
2023/10/31 13:06:23;;;;;;;;;;;;;;;;;;5035599;28;20330;-81
2023/10/31 13:08:49;;;;;;;;;;;;;;;;;;5036494;28;19964;-80
2023/10/31 13:11:15;;;;;;;;;;;;;;;;;;5032843;28;19932;-80
2023/10/31 13:13:41;;;;;;;;;;;;;;;;;;5028888;28;20702;-81
2023/10/31 13:16:07;;;;;;;;;;;;;;;;;;5035998;28;19925;-80
2023/10/31 13:18:33;;;;;;;;;;;;;;;;;;5034330;28;20482;-81
2023/10/31 13:20:59;;;;;;;;;;;;;;;;;;5037596;28;20275;-81
2023/10/31 13:23:25;;;;;;;;;;;;;;;;;;5027687;28;19940;-81
2023/10/31 13:25:51;;;;;;;;;;;;;;;;;;5034578;28;20000;-82
2023/10/31 13:28:17;;;;;;;;;;;;;;;;;;5028937;28;20059;-82
2023/10/31 13:30:43;;;;;;;;;;;;;;;;;;5040847;28;20353;-82
2023/10/31 13:33:09;;;;;;;;;;;;;;;;;;5034652;28;20079;-82
2023/10/31 13:35:35;;;;;;;;;;;;;;;;;;5031296;28;19964;-82
2023/10/31 13:38:01;;;;;;;;;;;;;;;;;;5040202;28;20015;-82
2023/10/31 13:40:30;;;;;;;;;;;;;;;;;;5040608;28;20015;-82
2023/10/31 13:42:56;;;;;;;;;;;;;;;;;;5032787;28;19940;-81
2023/10/31 13:45:24;;;;;;;;;;;;;;;;;;5035591;28;19929;-81
2023/10/31 13:47:50;;;;;;;;;;;;;;;;;;5037624;28;19925;-82
2023/10/31 13:50:16;;;;;;;;;;;;;;;;;;5036206;28;19932;-82
2023/10/31 13:52:42;;;;;;;;;;;;;;;;;;5042267;28;20340;-82
2023/10/31 13:55:08;;;;;;;;;;;;;;;;;;5045662;28;19944;-81
2023/10/31 13:57:34;;;;;;;;;;;;;;;;;;5039695;28;20331;-82
2023/10/31 14:00:00;;;;;;;;;;;;;;;;;;5042096;28;19984;-82
2023/10/31 14:02:28;;;;;;;;;;;;;;;;;;5031928;28;20226;-82
2023/10/31 14:04:54;;;;;;;;;;;;;;;;;;5047045;28;20495;-82
2023/10/31 14:07:20;;;;;;;;;;;;;;;;;;5030079;28;20333;-82
2023/10/31 14:09:47;;;;;;;;;;;;;;;;;;5037196;28;20454;-81
2023/10/31 14:12:16;;;;;;;;;;;;;;;;;;5034309;28;20012;-82
2023/10/31 14:14:42;;;;;;;;;;;;;;;;;;5036166;28;19925;-81
2023/10/31 14:17:08;;;;;;;;;;;;;;;;;;5033817;28;20351;-82
2023/10/31 14:19:35;;;;;;;;;;;;;;;;;;5031453;28;19935;-82
2023/10/31 14:22:01;;;;;;;;;;;;;;;;;;5031980;28;19975;-81
2023/10/31 14:24:27;;;;;;;;;;;;;;;;;;5029872;28;20163;-82
2023/10/31 14:26:53;;;;;;;;;;;;;;;;;;5032835;28;20320;-82
2023/10/31 14:29:19;;;;;;;;;;;;;;;;;;5034236;28;20003;-82
2023/10/31 14:31:45;;;;;;;;;;;;;;;;;;5035602;28;19925;-82
2023/10/31 14:34:11;;;;;;;;;;;;;;;;;;5031000;28;20304;-82
2023/10/31 14:36:36;;;;;;;;;;;;;;;;;;5028498;28;19940;-81
2023/10/31 14:39:02;;;;;;;;;;;;;;;;;;5030773;28;20361;-81
2023/10/31 14:41:33;;;;;;;;;;;;;;;;;;5031094;28;19933;-81
2023/10/31 14:43:59;;;;;;;;;;;;;;;;;;5027312;28;20396;-83
2023/10/31 14:46:25;;;;;;;;;;;;;;;;;;5010087;28;20335;-81
2023/10/31 14:48:50;;;;;;;;;;;;;;;;;;5037165;28;19925;-81
2023/10/31 14:51:17;;;;;;;;;;;;;;;;;;5029576;28;19928;-82
2023/10/31 14:53:43;;;;;;;;;;;;;;;;;;5029952;28;19928;-82
2023/10/31 14:56:09;;;;;;;;;;;;;;;;;;5021730;28;19979;-80
2023/10/31 14:58:35;;;;;;;;;;;;;;;;;;5036869;28;19929;-82
2023/10/31 15:01:01;;;;;;;;;;;;;;;;;;5029847;28;20278;-81
2023/10/31 15:03:30;;;;;;;;;;;;;;;;;;5036523;28;20476;-82
2023/10/31 15:05:56;;;;;;;;;;;;;;;;;;5038964;28;19925;-80
2023/10/31 15:08:28;;;;;;;;;;;;;;;;;;5034544;28;19940;-81
2023/10/31 15:10:57;;;;;;;;;;;;;;;;;;5025328;28;20160;-81
2023/10/31 15:13:23;;;;;;;;;;;;;;;;;;5032654;28;19929;-81
2023/10/31 15:15:52;;;;;;;;;;;;;;;;;;5028899;28;19929;-80
2023/10/31 15:18:18;;;;;;;;;;;;;;;;;;5030877;28;19972;-79
2023/10/31 15:20:44;;;;;;;;;;;;;;;;;;5039146;28;19928;-81
2023/10/31 15:23:13;;;;;;;;;;;;;;;;;;5040604;28;19983;-81
2023/10/31 15:25:39;;;;;;;;;;;;;;;;;;5030163;28;19929;-81
2023/10/31 15:28:07;;;;;;;;;;;;;;;;;;5035724;28;19990;-82
2023/10/31 15:30:35;;;;;;;;;;;;;;;;;;5037200;28;19964;-81
2023/10/31 15:33:04;;;;;;;;;;;;;;;;;;5019232;28;19978;-82
2023/10/31 15:35:30;;;;;;;;;;;;;;;;;;5035984;28;19976;-81
2023/10/31 15:38:02;;;;;;;;;;;;;;;;;;5035857;28;19925;-80
2023/10/31 15:40:28;;;;;;;;;;;;;;;;;;5017416;28;19935;-81
2023/10/31 15:42:58;;;;;;;;;;;;;;;;;;5036687;28;19935;-82
2023/10/31 15:45:24;;;;;;;;;;;;;;;;;;5034014;28;19935;-83
2023/10/31 15:47:55;;;;;;;;;;;;;;;;;;5044183;28;20427;-82
2023/10/31 15:50:31;;;;;;;;;;;;;;;;;;5035157;28;19928;-82
2023/10/31 15:53:00;;;;;;;;;;;;;;;;;;5036340;28;19932;-85
2023/10/31 15:55:38;;;;;;;;;;;;;;;;;;5036859;28;19933;-82
2023/10/31 15:58:04;;;;;;;;;;;;;;;;;;5028214;28;19932;-83
2023/10/31 16:00:30;;;;;;;;;;;;;;;;;;5039927;28;19932;-83
2023/10/31 16:03:02;;;;;;;;;;;;;;;;;;5038551;28;19925;-84
2023/10/31 16:05:31;;;;;;;;;;;;;;;;;;5032605;28;19929;-83
2023/10/31 16:08:08;;;;;;;;;;;;;;;;;;5026927;28;19925;-82
2023/10/31 16:10:34;;;;;;;;;;;;;;;;;;5041934;28;19936;-84
2023/10/31 16:13:03;;;;;;;;;;;;;;;;;;5038672;28;19929;-82
2023/10/31 16:15:30;;;;;;;;;;;;;;;;;;5043224;28;19947;-83
2023/10/31 16:18:00;;;;;;;;;;;;;;;;;;5040894;28;19955;-83
2023/10/31 16:20:26;;;;;;;;;;;;;;;;;;5015393;28;19925;-83
2023/10/31 16:22:52;;;;;;;;;;;;;;;;;;5037714;28;19932;-83
2023/10/31 16:25:18;;;;;;;;;;;;;;;;;;5041437;28;19933;-83
2023/10/31 16:27:47;;;;;;;;;;;;;;;;;;5037329;28;20375;-82
2023/10/31 16:30:13;;;;;;;;;;;;;;;;;;5042140;28;19933;-84
2023/10/31 16:32:39;;;;;;;;;;;;;;;;;;5034431;28;19929;-81
2023/10/31 16:35:05;;;;;;;;;;;;;;;;;;5032787;22;20063;-80
2023/10/31 16:37:32;;;;;;;;;;;;;;;;;;5017887;28;19925;-81
2023/10/31 16:39:58;;;;;;;;;;;;;;;;;;5017734;28;20336;-83
2023/10/31 16:42:31;;;;;;;;;;;;;;;;;;4983824;28;20055;-82